Time;durP1;ratioP1;P1;durP2;ratioP2;P2;SDS_P1;SDS_P2;PMS_P1;PMS_P2;Temp;Humidity;BMP_temperature;BMP_pressure;BME280_temperature;BME280_humidity;BME280_pressure;Samples;Min_cycle;Max_cycle;Signal;HPM_P1;HPM_P2
2023/01/20 00:01:22;;;;;;;41.60;26.77;;;1.70;99.90;;;;;;5038646;28;20214;-78
2023/01/20 00:03:49;;;;;;;46.85;29.48;;;1.70;99.90;;;;;;5032039;28;20240;-76
2023/01/20 00:06:16;;;;;;;51.25;32.17;;;1.70;99.90;;;;;;5029678;28;20280;-76
2023/01/20 00:08:44;;;;;;;51.45;30.58;;;1.70;99.90;;;;;;5026794;28;20204;-76
2023/01/20 00:11:12;;;;;;;57.28;30.50;;;1.60;99.90;;;;;;5025508;28;20235;-76
2023/01/20 00:13:40;;;;;;;53.20;30.95;;;1.60;99.90;;;;;;5041376;28;20359;-74
2023/01/20 00:16:15;;;;;;;53.90;30.60;;;1.50;99.90;;;;;;5043082;28;20714;-75
2023/01/20 00:18:42;;;;;;;56.58;31.48;;;1.50;99.90;;;;;;5029372;28;20223;-77
2023/01/20 00:21:11;;;;;;;52.45;30.65;;;1.50;99.90;;;;;;5040524;28;20230;-76
2023/01/20 00:23:39;;;;;;;43.00;28.60;;;1.50;99.90;;;;;;5036471;28;20705;-77
2023/01/20 00:26:10;;;;;;;45.75;30.75;;;1.50;99.90;;;;;;5024926;28;20303;-76
2023/01/20 00:28:37;;;;;;;50.33;32.75;;;1.50;99.90;;;;;;5035720;28;20552;-76
2023/01/20 00:31:12;;;;;;;55.47;33.50;;;1.50;99.90;;;;;;5029568;28;20221;-76
2023/01/20 00:33:39;;;;;;;53.08;34.33;;;1.40;99.90;;;;;;5043936;28;20199;-76
2023/01/20 00:36:07;;;;;;;60.55;37.92;;;1.40;99.90;;;;;;5031731;28;20216;-76
2023/01/20 00:38:33;;;;;;;61.92;35.42;;;1.40;99.90;;;;;;5039347;28;20219;-76
2023/01/20 00:41:00;;;;;;;70.00;35.47;;;1.40;99.90;;;;;;5046152;28;20315;-76
2023/01/20 00:43:29;;;;;;;52.13;34.85;;;1.40;99.90;;;;;;5044663;28;20238;-73
2023/01/20 00:45:56;;;;;;;62.42;36.95;;;1.30;99.90;;;;;;5045274;28;21014;-77
2023/01/20 00:48:23;;;;;;;59.20;35.03;;;1.30;99.90;;;;;;5044624;28;20204;-77
2023/01/20 00:50:50;;;;;;;62.30;36.90;;;1.40;99.90;;;;;;5040435;28;20282;-76
2023/01/20 00:53:17;;;;;;;61.30;40.63;;;1.30;99.90;;;;;;5031511;28;20204;-76
2023/01/20 00:55:44;;;;;;;60.90;37.38;;;1.40;99.90;;;;;;5040548;28;20223;-76
2023/01/20 00:58:11;;;;;;;71.95;40.58;;;1.30;99.90;;;;;;5035262;28;20280;-77
2023/01/20 01:00:39;;;;;;;69.97;37.75;;;1.20;99.90;;;;;;5042191;28;20311;-75
2023/01/20 01:03:09;;;;;;;64.95;37.17;;;1.20;99.90;;;;;;5037530;28;20201;-75
2023/01/20 01:05:36;;;;;;;72.22;38.75;;;1.10;99.90;;;;;;5031544;28;20220;-75
2023/01/20 01:08:03;;;;;;;60.78;37.88;;;1.10;99.90;;;;;;5040439;28;20261;-75
2023/01/20 01:10:31;;;;;;;76.75;41.50;;;1.20;99.90;;;;;;5041451;28;20291;-76
2023/01/20 01:12:59;;;;;;;69.88;39.75;;;1.10;99.90;;;;;;5032718;28;20215;-76
2023/01/20 01:15:26;;;;;;;70.82;38.97;;;1.10;99.90;;;;;;5030499;28;20314;-76
2023/01/20 01:17:55;;;;;;;77.25;41.05;;;1.10;99.90;;;;;;5041717;28;20295;-76
2023/01/20 01:20:22;;;;;;;74.78;39.67;;;1.30;99.90;;;;;;5033998;28;20227;-76
2023/01/20 01:22:49;;;;;;;66.63;38.90;;;1.20;99.90;;;;;;5037655;28;20313;-76
2023/01/20 01:25:16;;;;;;;58.28;35.17;;;1.30;99.90;;;;;;5035363;28;20316;-76
2023/01/20 01:27:45;;;;;;;65.22;37.33;;;1.30;99.90;;;;;;5025181;28;20283;-75
2023/01/20 01:30:13;;;;;;;67.75;36.90;;;1.30;99.90;;;;;;5035006;28;20276;-76
2023/01/20 01:32:40;;;;;;;64.88;37.17;;;1.30;99.90;;;;;;5025447;28;20294;-75
2023/01/20 01:35:09;;;;;;;62.50;34.45;;;1.40;99.90;;;;;;5046407;28;20221;-75
2023/01/20 01:37:36;;;;;;;66.40;37.35;;;1.40;99.90;;;;;;5047581;28;20226;-74
2023/01/20 01:40:03;;;;;;;77.53;36.15;;;1.40;99.90;;;;;;5060457;28;20247;-74
2023/01/20 01:42:30;;;;;;;63.53;34.47;;;1.40;99.90;;;;;;5057643;28;20216;-75
2023/01/20 01:45:23;;;;;;;66.03;36.40;;;1.40;99.90;;;;;;5031290;28;20252;-76
2023/01/20 01:47:55;;;;;;;58.65;34.25;;;1.50;99.90;;;;;;5008998;28;20200;-76
2023/01/20 01:50:26;;;;;;;60.65;33.08;;;1.40;99.90;;;;;;5038857;28;20275;-77
2023/01/20 01:52:56;;;;;;;56.28;33.78;;;1.40;99.90;;;;;;5041483;28;20251;-75
2023/01/20 01:55:27;;;;;;;63.40;32.30;;;1.50;99.90;;;;;;5043274;28;20324;-76
2023/01/20 01:57:56;;;;;;;52.33;29.63;;;1.40;99.90;;;;;;5045279;28;20200;-76
2023/01/20 02:00:23;;;;;;;56.13;31.58;;;1.40;99.90;;;;;;5044084;28;20303;-75
2023/01/20 02:02:51;;;;;;;55.40;30.38;;;1.40;99.90;;;;;;5048853;28;20282;-76
2023/01/20 02:05:19;;;;;;;60.00;32.53;;;1.40;99.90;;;;;;5038812;28;20275;-77
2023/01/20 02:07:48;;;;;;;50.47;29.70;;;1.50;99.90;;;;;;5043656;28;20646;-76
2023/01/20 02:10:16;;;;;;;58.72;30.55;;;1.40;99.90;;;;;;5036723;28;20204;-77
2023/01/20 02:12:46;;;;;;;56.85;30.67;;;1.40;99.90;;;;;;5034143;28;20655;-76
2023/01/20 02:15:13;;;;;;;58.55;29.02;;;1.40;99.90;;;;;;5040595;28;20721;-76
2023/01/20 02:17:49;;;;;;;51.15;27.38;;;1.40;99.90;;;;;;5038371;28;20200;-77
2023/01/20 02:20:43;;;;;;;53.97;27.42;;;1.40;99.90;;;;;;5031987;28;20599;-76
2023/01/20 02:23:23;;;;;;;57.15;30.27;;;1.40;99.90;;;;;;5038918;28;20232;-76
2023/01/20 02:26:17;;;;;;;57.50;31.65;;;1.50;99.90;;;;;;5038820;28;20221;-76
2023/01/20 02:29:09;;;;;;;46.88;23.92;;;1.50;99.90;;;;;;5027712;28;20547;-76
2023/01/20 02:32:09;;;;;;;59.40;30.63;;;1.60;99.90;;;;;;5022111;28;20204;-77
2023/01/20 02:34:40;;;;;;;50.17;29.25;;;1.60;99.90;;;;;;5035481;28;20292;-76
2023/01/20 02:37:13;;;;;;;50.75;24.70;;;1.70;99.90;;;;;;5036910;28;20203;-77
2023/01/20 02:39:49;;;;;;;45.20;26.35;;;1.70;99.90;;;;;;5022940;28;20311;-76
2023/01/20 02:42:22;;;;;;;56.20;26.98;;;1.70;99.90;;;;;;5026911;28;20211;-77
2023/01/20 02:44:53;;;;;;;46.05;24.70;;;1.70;99.90;;;;;;5025268;28;20224;-77
2023/01/20 02:47:32;;;;;;;53.97;31.35;;;1.70;99.90;;;;;;5024477;28;20201;-78
2023/01/20 02:50:07;;;;;;;52.42;28.40;;;1.70;99.90;;;;;;5028995;28;20205;-77
2023/01/20 02:52:38;;;;;;;54.65;29.02;;;1.80;99.90;;;;;;5021344;28;20289;-78
2023/01/20 02:55:09;;;;;;;55.90;26.90;;;1.80;99.90;;;;;;5035698;28;20235;-76
2023/01/20 02:57:45;;;;;;;49.25;25.58;;;1.90;99.90;;;;;;5029808;28;20219;-76
2023/01/20 03:00:16;;;;;;;44.65;24.63;;;1.80;99.90;;;;;;5032501;28;20898;-76
2023/01/20 03:02:48;;;;;;;50.63;28.25;;;1.80;99.90;;;;;;5038842;28;20288;-76
2023/01/20 03:05:20;;;;;;;49.70;24.15;;;1.70;99.90;;;;;;5044386;28;20641;-76
2023/01/20 03:07:50;;;;;;;53.65;25.65;;;1.80;99.90;;;;;;5031410;28;20196;-76
2023/01/20 03:10:21;;;;;;;64.70;27.15;;;1.80;99.90;;;;;;5043096;28;20254;-78
2023/01/20 03:12:53;;;;;;;44.65;25.17;;;1.90;99.90;;;;;;5041606;28;20196;-77
2023/01/20 03:15:24;;;;;;;48.08;25.77;;;1.90;99.90;;;;;;5042366;28;20307;-77
2023/01/20 03:17:53;;;;;;;49.05;26.08;;;1.80;99.90;;;;;;5032403;28;20228;-77
2023/01/20 03:20:20;;;;;;;46.30;27.13;;;1.80;99.90;;;;;;5032590;28;20627;-77
2023/01/20 03:22:49;;;;;;;42.90;24.58;;;1.90;99.90;;;;;;5036448;28;20647;-77
2023/01/20 03:25:17;;;;;;;37.35;20.23;;;1.80;99.90;;;;;;5039210;28;20228;-75
2023/01/20 03:27:44;;;;;;;48.33;25.38;;;1.80;99.90;;;;;;5046633;28;20737;-76
2023/01/20 03:30:13;;;;;;;50.33;26.67;;;1.80;99.90;;;;;;5037542;28;20231;-76
2023/01/20 03:32:42;;;;;;;41.33;22.73;;;1.80;99.90;;;;;;5037956;28;20285;-76
2023/01/20 03:35:11;;;;;;;47.88;25.40;;;1.80;99.90;;;;;;5032610;28;20311;-77
2023/01/20 03:37:39;;;;;;;50.90;24.58;;;1.80;99.90;;;;;;5048369;28;20227;-78
2023/01/20 03:40:07;;;;;;;46.42;25.65;;;1.80;99.90;;;;;;5039851;28;20224;-75
2023/01/20 03:42:40;;;;;;;47.00;24.70;;;1.90;99.90;;;;;;5025324;28;20266;-76
2023/01/20 03:45:13;;;;;;;42.90;24.65;;;1.90;99.90;;;;;;5038399;28;20250;-77
2023/01/20 03:47:51;;;;;;;43.92;24.23;;;1.90;99.90;;;;;;5040703;28;20643;-76
2023/01/20 03:50:29;;;;;;;43.65;23.02;;;2.00;99.90;;;;;;5044368;28;20673;-76
2023/01/20 03:53:01;;;;;;;44.53;25.05;;;2.00;99.90;;;;;;5041749;28;20254;-75
2023/01/20 03:55:35;;;;;;;43.72;24.20;;;2.00;99.90;;;;;;5037160;28;20315;-76
2023/01/20 03:58:06;;;;;;;47.78;24.85;;;1.90;99.90;;;;;;5045669;28;20207;-76
2023/01/20 04:00:36;;;;;;;49.42;24.40;;;2.00;99.90;;;;;;5036494;28;20314;-76
2023/01/20 04:03:07;;;;;;;44.67;23.13;;;1.90;99.90;;;;;;5031553;28;20205;-75
2023/01/20 04:05:37;;;;;;;39.70;21.60;;;1.90;99.90;;;;;;5039642;28;20227;-75
2023/01/20 04:08:08;;;;;;;42.65;24.08;;;1.90;99.90;;;;;;5033433;28;20228;-75
2023/01/20 04:10:38;;;;;;;38.95;21.48;;;2.00;99.90;;;;;;5050048;28;20199;-76
2023/01/20 04:13:05;;;;;;;37.30;20.80;;;2.00;99.90;;;;;;5036536;28;20607;-75
2023/01/20 04:15:35;;;;;;;36.38;19.95;;;2.00;99.90;;;;;;5036192;28;20226;-76
2023/01/20 04:18:15;;;;;;;41.17;22.30;;;2.00;99.90;;;;;;5040772;28;20614;-77
2023/01/20 04:20:44;;;;;;;39.75;19.95;;;2.10;99.90;;;;;;5025031;28;20562;-76
2023/01/20 04:23:18;;;;;;;41.50;21.45;;;2.20;99.90;;;;;;5044172;28;20200;-76
2023/01/20 04:25:45;;;;;;;34.30;19.42;;;2.30;99.90;;;;;;5040945;28;20227;-77
2023/01/20 04:28:12;;;;;;;38.25;20.50;;;2.30;99.90;;;;;;5042417;28;20199;-76
2023/01/20 04:30:39;;;;;;;39.53;20.55;;;2.30;99.90;;;;;;5044410;28;20283;-76
2023/01/20 04:33:06;;;;;;;32.17;18.85;;;2.40;99.90;;;;;;5037573;28;20295;-76
2023/01/20 04:35:33;;;;;;;40.88;18.42;;;2.30;99.90;;;;;;5039868;28;20281;-76
2023/01/20 04:38:02;;;;;;;32.08;17.75;;;2.30;99.90;;;;;;5058751;28;20224;-75
2023/01/20 04:40:29;;;;;;;30.40;17.85;;;2.30;99.90;;;;;;5054575;28;20247;-76
2023/01/20 04:42:57;;;;;;;34.03;17.95;;;2.30;99.90;;;;;;5063573;28;20203;-76
2023/01/20 04:45:24;;;;;;;29.90;17.95;;;2.30;99.90;;;;;;5053625;28;20234;-76
2023/01/20 04:47:53;;;;;;;30.13;18.08;;;2.40;99.90;;;;;;5051525;28;20215;-76
2023/01/20 04:50:20;;;;;;;36.00;17.65;;;2.40;99.90;;;;;;5051979;28;20725;-77
2023/01/20 04:52:49;;;;;;;31.25;17.25;;;2.40;99.90;;;;;;5024356;28;20546;-77
2023/01/20 04:55:17;;;;;;;34.50;17.17;;;2.30;99.90;;;;;;5046704;28;20721;-76
2023/01/20 04:57:46;;;;;;;34.67;17.65;;;2.30;99.90;;;;;;5045429;28;20238;-77
2023/01/20 05:00:18;;;;;;;35.33;18.33;;;2.30;99.90;;;;;;5039826;28;20640;-76
2023/01/20 05:02:46;;;;;;;29.50;20.00;;;2.30;99.90;;;;;;5039523;28;20201;-77
2023/01/20 05:05:12;;;;;;;29.40;17.92;;;2.40;99.90;;;;;;5038608;28;20251;-77
2023/01/20 05:07:39;;;;;;;28.77;17.52;;;2.50;99.90;;;;;;5041169;28;20275;-75
2023/01/20 05:10:07;;;;;;;30.80;17.30;;;2.50;99.90;;;;;;5035061;28;20195;-77
2023/01/20 05:12:36;;;;;;;43.97;18.75;;;2.50;99.90;;;;;;5037940;28;20239;-74
2023/01/20 05:15:03;;;;;;;27.38;16.48;;;2.50;99.90;;;;;;5038237;28;20761;-76
2023/01/20 05:17:30;;;;;;;31.15;17.52;;;2.60;99.90;;;;;;5043447;28;20564;-77
2023/01/20 05:19:57;;;;;;;30.55;17.20;;;2.60;99.90;;;;;;5034468;28;20197;-76
2023/01/20 05:22:24;;;;;;;29.15;18.70;;;2.60;99.90;;;;;;5041651;28;20302;-75
2023/01/20 05:24:51;;;;;;;27.80;16.48;;;2.60;99.90;;;;;;5041725;28;20303;-76
2023/01/20 05:27:18;;;;;;;31.95;17.98;;;2.60;99.90;;;;;;5049583;28;20208;-76
2023/01/20 05:29:46;;;;;;;31.23;16.15;;;2.70;99.90;;;;;;5032187;28;20237;-76
2023/01/20 05:32:14;;;;;;;32.47;16.55;;;2.60;99.90;;;;;;5040799;28;20220;-77
2023/01/20 05:34:44;;;;;;;28.35;15.70;;;2.70;99.90;;;;;;5049436;28;20310;-75
2023/01/20 05:37:12;;;;;;;28.77;16.10;;;2.70;99.90;;;;;;5031103;28;20193;-77
2023/01/20 05:39:39;;;;;;;33.40;19.15;;;2.70;99.90;;;;;;5044834;28;20202;-75
2023/01/20 05:42:06;;;;;;;34.40;18.13;;;2.70;99.90;;;;;;5036918;28;20303;-76
2023/01/20 05:44:34;;;;;;;32.63;17.85;;;2.80;99.90;;;;;;5038423;28;20216;-76
2023/01/20 05:47:03;;;;;;;34.75;17.77;;;2.80;99.90;;;;;;5027561;28;20245;-76
2023/01/20 05:49:30;;;;;;;33.63;17.63;;;2.70;99.90;;;;;;5040620;28;20294;-75
2023/01/20 05:51:57;;;;;;;28.58;15.32;;;2.70;99.90;;;;;;5042383;28;20620;-76
2023/01/20 05:54:24;;;;;;;37.97;20.55;;;2.70;99.90;;;;;;5032603;28;20674;-76
2023/01/20 05:56:52;;;;;;;29.67;18.65;;;2.60;99.90;;;;;;5032312;28;20234;-77
2023/01/20 05:59:19;;;;;;;36.33;19.23;;;2.70;99.90;;;;;;5034933;28;20647;-76
2023/01/20 06:01:46;;;;;;;34.47;18.40;;;2.60;99.90;;;;;;5032551;28;20214;-76
2023/01/20 06:04:14;;;;;;;30.60;18.10;;;2.70;99.90;;;;;;5041127;28;20311;-75
2023/01/20 06:06:41;;;;;;;34.65;18.80;;;2.80;99.90;;;;;;5021082;28;20233;-78
2023/01/20 06:09:09;;;;;;;36.38;20.10;;;2.80;99.90;;;;;;5029569;28;20200;-77
2023/01/20 06:11:37;;;;;;;30.48;17.95;;;2.80;99.90;;;;;;5040380;28;20215;-78
2023/01/20 06:14:05;;;;;;;34.22;18.80;;;2.80;99.90;;;;;;5024876;28;20414;-75
2023/01/20 06:16:32;;;;;;;33.50;18.00;;;3.00;99.90;;;;;;5039084;28;20227;-76
2023/01/20 06:18:59;;;;;;;32.85;19.70;;;2.90;99.90;;;;;;5031717;28;20296;-78
2023/01/20 06:21:27;;;;;;;29.95;16.83;;;3.00;99.90;;;;;;5030374;28;20300;-77
2023/01/20 06:23:54;;;;;;;31.45;17.95;;;3.00;99.90;;;;;;5038813;28;20608;-76
2023/01/20 06:26:21;;;;;;;31.27;18.17;;;3.00;99.90;;;;;;5034369;28;20252;-76
2023/01/20 06:28:48;;;;;;;32.92;17.60;;;3.00;99.90;;;;;;5041685;28;20284;-77
2023/01/20 06:31:16;;;;;;;31.23;17.27;;;3.10;99.90;;;;;;5035625;28;20239;-76
2023/01/20 06:33:44;;;;;;;38.97;20.42;;;3.00;99.90;;;;;;5029374;28;20681;-78
2023/01/20 06:36:14;;;;;;;33.03;19.85;;;3.00;99.90;;;;;;5038803;28;20686;-76
2023/01/20 06:38:47;;;;;;;40.63;19.58;;;3.00;99.90;;;;;;5040185;28;20228;-76
2023/01/20 06:41:14;;;;;;;30.17;19.25;;;2.90;99.90;;;;;;5048799;28;20248;-77
2023/01/20 06:43:41;;;;;;;32.80;18.17;;;2.90;99.90;;;;;;5039859;28;20201;-77
2023/01/20 06:46:12;;;;;;;37.08;21.08;;;2.90;99.90;;;;;;5046877;28;20314;-77
2023/01/20 06:48:39;;;;;;;33.47;18.83;;;2.80;99.90;;;;;;5045313;28;20219;-76
2023/01/20 06:51:10;;;;;;;29.30;17.50;;;2.80;99.90;;;;;;5054157;28;20200;-76
2023/01/20 06:53:37;;;;;;;31.23;18.48;;;2.80;99.90;;;;;;5045879;28;20192;-77
2023/01/20 06:56:06;;;;;;;34.40;17.95;;;2.90;99.90;;;;;;5041086;28;20278;-78
2023/01/20 06:58:35;;;;;;;32.97;18.80;;;2.90;99.90;;;;;;5043020;28;20298;-77
2023/01/20 07:01:08;;;;;;;34.60;18.48;;;2.90;99.90;;;;;;5031435;28;20235;-77
2023/01/20 07:03:35;;;;;;;34.78;19.00;;;2.80;99.90;;;;;;5039123;28;20210;-75
2023/01/20 07:06:07;;;;;;;30.20;18.02;;;2.70;99.90;;;;;;5037143;28;20270;-75
2023/01/20 07:08:35;;;;;;;34.58;20.13;;;2.80;99.90;;;;;;5025495;28;20702;-77
2023/01/20 07:11:06;;;;;;;33.17;18.52;;;2.80;99.90;;;;;;5031531;28;20228;-75
2023/01/20 07:13:33;;;;;;;33.30;19.02;;;2.90;99.90;;;;;;5037150;28;20561;-74
2023/01/20 07:16:01;;;;;;;35.08;20.40;;;3.00;99.90;;;;;;5039901;28;20261;-78
2023/01/20 07:18:28;;;;;;;29.02;19.20;;;3.00;99.90;;;;;;5034897;28;20278;-75
2023/01/20 07:20:55;;;;;;;39.70;21.30;;;3.10;99.90;;;;;;5038281;28;20219;-75
2023/01/20 07:23:22;;;;;;;34.95;19.20;;;3.10;99.90;;;;;;5049080;28;20232;-75
2023/01/20 07:25:57;;;;;;;38.90;20.02;;;3.10;99.90;;;;;;5046430;28;20219;-80
2023/01/20 07:28:26;;;;;;;32.70;18.75;;;3.10;99.90;;;;;;5036225;28;20204;-78
2023/01/20 07:31:03;;;;;;;29.50;17.83;;;3.10;99.90;;;;;;5038304;28;20220;-77
2023/01/20 07:33:31;;;;;;;31.73;18.30;;;3.20;99.90;;;;;;5042291;28;20562;-84
2023/01/20 07:36:05;;;;;;;29.15;18.98;;;3.20;99.90;;;;;;5028961;28;20229;-77
2023/01/20 07:38:35;;;;;;;34.78;19.42;;;3.30;99.90;;;;;;5043603;28;20203;-74
2023/01/20 07:41:07;;;;;;;38.28;20.92;;;3.40;99.90;;;;;;5031270;28;20777;-80
2023/01/20 07:43:35;;;;;;;35.40;19.75;;;3.30;99.90;;;;;;5041420;28;20671;-74
2023/01/20 07:46:04;;;;;;;33.97;20.17;;;3.20;99.90;;;;;;5022186;28;20224;-76
2023/01/20 07:48:33;;;;;;;32.28;20.55;;;3.30;99.90;;;;;;5023462;28;20671;-76
2023/01/20 07:51:02;;;;;;;30.48;19.13;;;3.30;99.90;;;;;;5037990;28;20250;-75
2023/01/20 07:53:33;;;;;;;28.65;18.23;;;3.40;99.90;;;;;;5035107;28;20304;-79
2023/01/20 07:56:01;;;;;;;46.22;21.25;;;3.30;99.90;;;;;;5042305;28;20760;-81
2023/01/20 07:58:29;;;;;;;35.80;20.17;;;3.40;99.90;;;;;;5029452;28;20231;-77
2023/01/20 08:01:06;;;;;;;29.10;18.95;;;3.40;99.90;;;;;;5036560;28;20699;-76
2023/01/20 08:03:33;;;;;;;37.30;19.10;;;3.40;99.90;;;;;;5028165;28;20208;-77
2023/01/20 08:06:02;;;;;;;32.25;17.27;;;3.40;99.90;;;;;;5036254;28;20705;-79
2023/01/20 08:08:29;;;;;;;30.45;18.17;;;3.40;99.90;;;;;;5026960;28;20203;-77
2023/01/20 08:10:57;;;;;;;28.70;18.00;;;3.40;99.90;;;;;;5038811;28;20287;-78
2023/01/20 08:13:24;;;;;;;37.63;18.42;;;3.40;99.90;;;;;;5038171;28;20296;-76
2023/01/20 08:15:51;;;;;;;29.60;17.70;;;3.60;99.90;;;;;;5031013;28;20310;-77
2023/01/20 08:18:19;;;;;;;38.63;19.77;;;3.60;99.90;;;;;;5025297;28;20654;-78
2023/01/20 08:20:46;;;;;;;28.65;16.45;;;3.60;99.90;;;;;;5038315;28;20325;-78
2023/01/20 08:23:13;;;;;;;26.35;15.88;;;3.60;99.90;;;;;;5039196;28;20200;-78
2023/01/20 08:25:40;;;;;;;36.65;19.92;;;3.50;99.90;;;;;;5039805;28;20270;-76
2023/01/20 08:28:09;;;;;;;26.77;15.43;;;3.60;99.90;;;;;;5048053;28;20247;-78
2023/01/20 08:30:36;;;;;;;26.67;15.50;;;3.60;99.90;;;;;;5029279;28;20211;-78
2023/01/20 08:33:05;;;;;;;28.05;16.50;;;3.70;99.90;;;;;;5040460;28;20678;-79
2023/01/20 08:35:35;;;;;;;26.25;16.13;;;3.70;99.90;;;;;;5040244;28;20251;-78
2023/01/20 08:38:04;;;;;;;30.88;16.10;;;3.70;99.90;;;;;;5035188;28;20564;-78
2023/01/20 08:40:31;;;;;;;27.17;16.92;;;3.70;99.90;;;;;;5038256;28;20215;-78
2023/01/20 08:42:58;;;;;;;31.38;18.40;;;3.70;99.90;;;;;;5028181;28;20252;-76
2023/01/20 08:45:25;;;;;;;28.58;15.70;;;3.90;99.90;;;;;;5039255;28;20303;-81
2023/01/20 08:47:52;;;;;;;23.65;14.50;;;4.00;99.90;;;;;;5040461;28;20223;-78
2023/01/20 08:50:21;;;;;;;33.05;17.30;;;3.90;99.90;;;;;;5051744;28;20200;-77
2023/01/20 08:52:50;;;;;;;27.63;14.55;;;4.00;99.90;;;;;;5047667;28;20197;-74
2023/01/20 08:55:17;;;;;;;33.28;16.95;;;4.10;99.90;;;;;;5043332;28;20290;-75
2023/01/20 08:57:44;;;;;;;28.58;16.38;;;4.30;99.90;;;;;;5047209;28;20232;-75
2023/01/20 09:00:13;;;;;;;29.13;16.00;;;4.30;99.90;;;;;;5053459;28;20261;-74
2023/01/20 09:02:40;;;;;;;29.70;17.00;;;4.40;99.90;;;;;;5042808;28;20287;-77
2023/01/20 09:05:08;;;;;;;27.23;16.08;;;4.50;99.90;;;;;;5045540;28;20248;-75
2023/01/20 09:07:36;;;;;;;27.92;15.88;;;4.60;99.90;;;;;;5042589;28;20283;-73
2023/01/20 09:10:07;;;;;;;25.10;15.13;;;4.50;99.90;;;;;;5047047;28;20203;-76
2023/01/20 09:12:37;;;;;;;24.40;15.35;;;4.60;99.90;;;;;;5035658;28;20223;-76
2023/01/20 09:15:06;;;;;;;29.38;15.82;;;4.60;99.90;;;;;;5034965;28;20232;-77
2023/01/20 09:17:34;;;;;;;27.17;17.02;;;4.50;99.90;;;;;;5031390;28;20250;-78
2023/01/20 09:20:01;;;;;;;25.48;15.55;;;4.60;99.90;;;;;;5038785;28;20196;-73
2023/01/20 09:22:28;;;;;;;28.73;16.65;;;4.70;99.90;;;;;;5033796;28;20292;-75
2023/01/20 09:24:55;;;;;;;35.25;18.73;;;4.70;99.90;;;;;;5036717;28;20311;-77
2023/01/20 09:27:25;;;;;;;26.83;15.25;;;4.60;99.90;;;;;;5036296;28;20614;-75
2023/01/20 09:29:52;;;;;;;28.95;16.25;;;4.70;99.90;;;;;;5035945;28;20327;-73
2023/01/20 09:32:19;;;;;;;28.48;15.55;;;4.60;99.90;;;;;;5044181;28;20200;-75
2023/01/20 09:34:46;;;;;;;26.45;16.60;;;4.70;99.90;;;;;;5034507;28;20220;-77
2023/01/20 09:45:53;;;;;;;29.65;15.95;;;4.50;99.90;;;;;;5042469;28;20227;-75
2023/01/20 09:54:13;;;;;;;27.55;16.10;;;5.10;99.90;;;;;;5021934;28;20208;-78
2023/01/20 09:56:44;;;;;;;26.85;15.52;;;5.40;99.90;;;;;;5026142;28;20638;-77
2023/01/20 09:59:19;;;;;;;29.33;16.83;;;5.60;99.90;;;;;;5029069;28;20236;-74
2023/01/20 10:01:48;;;;;;;22.63;15.38;;;5.60;99.90;;;;;;5023593;28;20244;-78
2023/01/20 10:04:23;;;;;;;26.05;14.43;;;5.70;99.90;;;;;;5032000;28;20306;-75
2023/01/20 10:06:53;;;;;;;25.50;15.57;;;5.70;99.90;;;;;;5029485;28;20227;-75
2023/01/20 10:09:28;;;;;;;24.13;15.85;;;5.80;99.90;;;;;;5040455;28;20245;-72
2023/01/20 10:12:01;;;;;;;29.10;17.58;;;5.80;99.90;;;;;;5032882;28;20277;-77
2023/01/20 10:14:34;;;;;;;29.77;17.80;;;5.70;99.90;;;;;;5031471;28;20215;-76
2023/01/20 10:17:06;;;;;;;24.60;14.93;;;5.30;99.90;;;;;;5041895;28;20206;-74
2023/01/20 10:19:41;;;;;;;27.98;14.80;;;5.30;99.90;;;;;;5029655;28;20288;-76
2023/01/20 10:22:12;;;;;;;29.67;16.02;;;5.30;99.90;;;;;;5050602;28;20319;-75
2023/01/20 10:24:47;;;;;;;28.90;15.73;;;5.10;99.90;;;;;;5043747;28;20348;-77
2023/01/20 10:27:14;;;;;;;25.85;16.08;;;5.00;99.90;;;;;;5045415;28;20298;-80
2023/01/20 10:29:46;;;;;;;27.92;16.42;;;4.90;99.90;;;;;;5042940;28;20350;-77
2023/01/20 10:32:21;;;;;;;33.70;19.83;;;4.80;99.90;;;;;;5043536;28;20247;-75
2023/01/20 10:34:53;;;;;;;29.33;17.80;;;4.60;99.90;;;;;;5038894;28;20257;-74
2023/01/20 10:37:22;;;;;;;36.75;19.63;;;4.40;99.90;;;;;;5033378;28;20204;-75
2023/01/20 10:39:53;;;;;;;27.55;16.98;;;4.10;99.90;;;;;;5041978;28;20203;-75
2023/01/20 10:42:23;;;;;;;37.17;19.88;;;4.00;99.90;;;;;;5041615;28;20231;-80
2023/01/20 10:44:52;;;;;;;36.38;18.90;;;4.00;99.90;;;;;;5036750;28;20302;-80
2023/01/20 10:47:41;;;;;;;38.42;18.30;;;4.00;99.90;;;;;;5043543;28;20204;-80
2023/01/20 10:50:32;;;;;;;32.85;17.70;;;4.00;99.90;;;;;;5036208;28;20208;-76
2023/01/20 10:53:32;;;;;;;34.08;18.50;;;4.00;99.90;;;;;;5040390;28;20283;-77
2023/01/20 10:56:16;;;;;;;38.00;18.13;;;4.10;99.90;;;;;;5038364;28;20641;-76
2023/01/20 10:58:46;;;;;;;30.52;18.92;;;4.10;99.90;;;;;;5041932;28;20250;-76
2023/01/20 11:01:17;;;;;;;33.88;18.50;;;4.20;99.90;;;;;;5038727;28;20204;-76
2023/01/20 11:03:46;;;;;;;33.42;18.63;;;4.30;99.90;;;;;;5036070;28;20580;-76
2023/01/20 11:06:19;;;;;;;32.50;16.67;;;4.30;99.90;;;;;;5039268;28;20259;-75
2023/01/20 11:08:46;;;;;;;27.55;14.93;;;4.20;99.90;;;;;;5033037;28;20286;-78
2023/01/20 11:11:17;;;;;;;27.58;15.57;;;4.30;99.90;;;;;;5040707;28;20278;-79
2023/01/20 11:13:45;;;;;;;30.10;15.50;;;4.50;99.90;;;;;;5045070;28;20219;-75
2023/01/20 11:16:18;;;;;;;24.00;15.55;;;5.00;99.90;;;;;;5044713;28;20278;-76
2023/01/20 11:18:56;;;;;;;25.15;15.23;;;5.30;99.90;;;;;;5028136;28;20231;-78
2023/01/20 11:21:24;;;;;;;33.03;14.75;;;5.40;99.90;;;;;;5038974;28;20306;-79
2023/01/20 11:23:54;;;;;;;22.38;13.93;;;5.50;99.90;;;;;;5049431;28;20265;-77
2023/01/20 11:26:23;;;;;;;24.25;13.95;;;5.40;99.90;;;;;;5038332;28;20222;-77
2023/01/20 11:28:54;;;;;;;23.98;15.32;;;5.50;99.90;;;;;;5039186;28;20259;-79
2023/01/20 11:31:45;;;;;;;22.35;13.80;;;5.50;99.90;;;;;;5041687;28;20213;-77
2023/01/20 11:34:24;;;;;;;21.25;13.07;;;5.60;99.90;;;;;;5031630;28;20206;-76
2023/01/20 11:37:12;;;;;;;24.42;13.63;;;5.40;99.90;;;;;;5038059;28;20279;-76
2023/01/20 11:39:59;;;;;;;27.63;14.80;;;5.10;99.90;;;;;;5042350;28;20262;-78
2023/01/20 11:42:27;;;;;;;24.33;14.30;;;4.90;99.90;;;;;;5033024;28;20220;-76
2023/01/20 11:44:56;;;;;;;25.48;16.55;;;4.90;99.90;;;;;;5037501;28;20224;-79
2023/01/20 11:47:26;;;;;;;26.77;15.63;;;4.90;99.90;;;;;;5035228;28;20871;-76
2023/01/20 11:50:26;;;;;;;24.75;15.02;;;4.90;99.90;;;;;;5044028;28;20195;-76
2023/01/20 11:52:53;;;;;;;25.52;15.30;;;4.90;99.90;;;;;;5018548;28;20253;-79
2023/01/20 11:55:22;;;;;;;24.33;13.50;;;5.00;99.90;;;;;;5050447;28;20267;-79
2023/01/20 11:57:53;;;;;;;23.75;13.68;;;5.00;99.90;;;;;;5042339;28;20201;-77
2023/01/20 12:00:40;;;;;;;21.23;13.45;;;5.20;99.90;;;;;;5041946;28;20293;-80
2023/01/20 12:03:42;;;;;;;17.83;11.60;;;5.10;99.90;;;;;;5040392;28;20224;-78
2023/01/20 12:06:18;;;;;;;21.70;13.90;;;5.00;99.90;;;;;;5016571;28;20288;-78
2023/01/20 12:08:49;;;;;;;22.20;12.90;;;5.00;99.90;;;;;;5029791;28;20223;-76
2023/01/20 12:11:22;;;;;;;29.20;15.68;;;4.90;99.90;;;;;;5038877;28;20288;-77
2023/01/20 12:16:47;;;;;;;25.27;13.65;;;5.00;99.90;;;;;;5030881;28;20202;-80
2023/01/20 12:19:19;;;;;;;21.17;12.18;;;4.90;99.90;;;;;;5036286;28;20197;-78
2023/01/20 12:21:51;;;;;;;24.15;13.30;;;4.60;99.90;;;;;;5029571;28;20283;-78
2023/01/20 12:24:26;;;;;;;21.25;11.70;;;4.50;99.90;;;;;;5046095;28;20261;-76
2023/01/20 12:26:54;;;;;;;20.25;11.30;;;4.40;99.90;;;;;;5044167;28;20191;-81
2023/01/20 12:29:36;;;;;;;22.92;13.57;;;4.50;99.90;;;;;;5045640;28;20226;-75
2023/01/20 12:32:04;;;;;;;23.48;12.35;;;4.50;99.90;;;;;;5036955;28;20199;-77
2023/01/20 12:34:34;;;;;;;23.17;13.05;;;4.60;99.90;;;;;;5034801;28;20204;-80
2023/01/20 12:37:12;;;;;;;20.35;11.20;;;4.70;99.90;;;;;;5021451;28;20200;-79
2023/01/20 12:39:57;;;;;;;18.55;11.02;;;4.90;99.90;;;;;;5027593;28;20295;-76
2023/01/20 12:42:50;;;;;;;19.65;12.45;;;4.80;99.90;;;;;;5035914;28;20273;-77
2023/01/20 12:45:39;;;;;;;19.63;13.23;;;4.90;99.90;;;;;;5041116;28;20327;-78
2023/01/20 12:48:24;;;;;;;20.33;11.82;;;4.90;99.90;;;;;;5047629;28;20231;-77
2023/01/20 12:51:05;;;;;;;22.50;12.02;;;4.90;99.90;;;;;;5030908;28;20196;-77
2023/01/20 12:53:47;;;;;;;22.65;13.02;;;4.90;99.90;;;;;;5044443;28;20226;-78
2023/01/20 12:56:25;;;;;;;20.83;12.80;;;4.80;99.90;;;;;;5037782;28;20232;-78
2023/01/20 12:59:00;;;;;;;22.58;15.02;;;4.90;99.90;;;;;;5033758;28;20201;-77
2023/01/20 13:01:45;;;;;;;18.95;10.82;;;4.90;99.90;;;;;;5031058;28;20236;-78
2023/01/20 13:04:41;;;;;;;19.65;14.55;;;4.80;99.90;;;;;;5030913;28;20247;-77
2023/01/20 13:07:38;;;;;;;17.65;11.85;;;5.00;99.90;;;;;;5028233;28;20282;-77
2023/01/20 13:10:22;;;;;;;18.33;12.75;;;5.00;99.90;;;;;;5029177;28;20302;-79
2023/01/20 13:12:56;;;;;;;38.20;11.50;;;5.10;99.90;;;;;;5032021;28;20566;-77